CAL118 RCTP-RJFK
Flight info
| Callsign | CAL118 |
|---|---|
| Flight time | 1h 31m |
| Altitude | 35000 |
| Route | MOLKA1C MOLKA M750 MOMPA Y451 HKC |
| Aircraft | B77W/H-SDE1E2E3FGHIJ2J3J4J5M1RWXY/LB1D1 |
Departure
| Time | 2026-05-08 10:53 |
|---|---|
| Airport | Taiwan Taoyuan International Airport (RCTP) |
Arrival
| Time | 2026-05-08 12:24 |
|---|---|
| Airport | Kagoshima Airport (RJFK) |
| Time | Latitude | Longitude | Altitude | Speed | Heading |
|---|---|---|---|---|---|
| 2026-05-08 10:22 | 25.08174 | 121.23381 | 122 ft | 0 kts | 139° |
| 2026-05-08 10:38 | 25.08175 | 121.23380 | 122 ft | 1 kts | 139° |
| 2026-05-08 10:38 | 25.08186 | 121.23370 | 122 ft | 2 kts | 140° |
| 2026-05-08 10:38 | 25.08197 | 121.23359 | 122 ft | 2 kts | 140° |
| 2026-05-08 10:38 | 25.08209 | 121.23348 | 122 ft | 2 kts | 140° |
| 2026-05-08 10:39 | 25.08220 | 121.23338 | 122 ft | 2 kts | 142° |
| 2026-05-08 10:39 | 25.08233 | 121.23329 | 122 ft | 2 kts | 166° |
| 2026-05-08 10:39 | 25.08248 | 121.23328 | 122 ft | 2 kts | 186° |
| 2026-05-08 10:39 | 25.08263 | 121.23332 | 122 ft | 2 kts | 205° |
| 2026-05-08 10:40 | 25.08275 | 121.23340 | 122 ft | 1 kts | 225° |
| 2026-05-08 10:40 | 25.08279 | 121.23345 | 122 ft | 0 kts | 230° |
| 2026-05-08 10:40 | 25.08279 | 121.23346 | 122 ft | 0 kts | 230° |
| 2026-05-08 10:40 | 25.08279 | 121.23345 | 122 ft | 0 kts | 230° |
| 2026-05-08 10:43 | 25.08270 | 121.23334 | 122 ft | 3 kts | 228° |
| 2026-05-08 10:43 | 25.08245 | 121.23302 | 122 ft | 6 kts | 229° |
| 2026-05-08 10:44 | 25.08207 | 121.23255 | 122 ft | 9 kts | 229° |
| 2026-05-08 10:44 | 25.08176 | 121.23216 | 122 ft | 6 kts | 229° |
| 2026-05-08 10:44 | 25.08152 | 121.23178 | 122 ft | 5 kts | 260° |
| 2026-05-08 10:44 | 25.08177 | 121.23137 | 122 ft | 7 kts | 320° |
| 2026-05-08 10:45 | 25.08205 | 121.23097 | 122 ft | 5 kts | 270° |
| 2026-05-08 10:45 | 25.08180 | 121.23054 | 122 ft | 8 kts | 229° |
| 2026-05-08 10:45 | 25.08129 | 121.22990 | 122 ft | 11 kts | 229° |
| 2026-05-08 10:45 | 25.08075 | 121.22922 | 122 ft | 11 kts | 229° |
| 2026-05-08 10:46 | 25.08013 | 121.22842 | 122 ft | 18 kts | 230° |
| 2026-05-08 10:46 | 25.07911 | 121.22711 | 122 ft | 26 kts | 229° |
| 2026-05-08 10:46 | 25.07781 | 121.22546 | 122 ft | 28 kts | 229° |
| 2026-05-08 10:46 | 25.07657 | 121.22389 | 122 ft | 26 kts | 229° |
| 2026-05-08 10:47 | 25.07539 | 121.22240 | 122 ft | 24 kts | 229° |
| 2026-05-08 10:47 | 25.07430 | 121.22101 | 122 ft | 23 kts | 229° |
| 2026-05-08 10:47 | 25.07328 | 121.21970 | 122 ft | 21 kts | 229° |
| 2026-05-08 10:47 | 25.07232 | 121.21849 | 122 ft | 20 kts | 229° |
| 2026-05-08 10:48 | 25.07171 | 121.21773 | 122 ft | 6 kts | 229° |
| 2026-05-08 10:48 | 25.07166 | 121.21732 | 122 ft | 7 kts | 302° |
| 2026-05-08 10:48 | 25.07203 | 121.21692 | 122 ft | 5 kts | 319° |
| 2026-05-08 10:48 | 25.07205 | 121.21690 | 122 ft | 0 kts | 319° |
| 2026-05-08 10:49 | 25.07214 | 121.21681 | 122 ft | 4 kts | 320° |
| 2026-05-08 10:49 | 25.07248 | 121.21651 | 122 ft | 8 kts | 320° |
| 2026-05-08 10:50 | 25.07287 | 121.21619 | 122 ft | 5 kts | 347° |
| 2026-05-08 10:50 | 25.07321 | 121.21640 | 122 ft | 6 kts | 46° |
| 2026-05-08 10:50 | 25.07328 | 121.21649 | 122 ft | 0 kts | 49° |
| 2026-05-08 10:52 | 25.07377 | 121.21711 | 122 ft | 34 kts | 49° |
| 2026-05-08 10:52 | 25.07693 | 121.22111 | 122 ft | 101 kts | 49° |
| 2026-05-08 10:52 | 25.08286 | 121.22865 | 123 ft | 157 kts | 49° |
| 2026-05-08 10:53 | 25.09045 | 121.23820 | 587 ft | 169 kts | 47° |
| 2026-05-08 10:53 | 25.09839 | 121.24822 | 1288 ft | 179 kts | 48° |
| 2026-05-08 10:53 | 25.10667 | 121.25871 | 2007 ft | 190 kts | 48° |
| 2026-05-08 10:53 | 25.11547 | 121.26990 | 2736 ft | 202 kts | 48° |
| 2026-05-08 10:54 | 25.12513 | 121.28233 | 3275 ft | 226 kts | 49° |
| 2026-05-08 10:54 | 25.13520 | 121.29571 | 4244 ft | 229 kts | 49° |
| 2026-05-08 10:54 | 25.14574 | 121.30922 | 4984 ft | 244 kts | 48° |
| 2026-05-08 10:54 | 25.15724 | 121.32399 | 5695 ft | 260 kts | 49° |
| 2026-05-08 10:55 | 25.16886 | 121.33919 | 6642 ft | 265 kts | 49° |
| 2026-05-08 10:55 | 25.18081 | 121.35478 | 7541 ft | 272 kts | 49° |
| 2026-05-08 10:55 | 25.19322 | 121.37092 | 8460 ft | 279 kts | 49° |
| 2026-05-08 10:55 | 25.20567 | 121.38710 | 9362 ft | 285 kts | 49° |
| 2026-05-08 10:56 | 25.21859 | 121.40390 | 10279 ft | 292 kts | 50° |
| 2026-05-08 10:56 | 25.23226 | 121.42167 | 10850 ft | 311 kts | 49° |
| 2026-05-08 10:56 | 25.24660 | 121.44034 | 11238 ft | 331 kts | 49° |
| 2026-05-08 10:56 | 25.26197 | 121.46034 | 11679 ft | 351 kts | 49° |
| 2026-05-08 10:57 | 25.27796 | 121.48118 | 12141 ft | 369 kts | 48° |
| 2026-05-08 10:57 | 25.29380 | 121.50441 | 12680 ft | 387 kts | 58° |
| 2026-05-08 10:57 | 25.31207 | 121.56198 | 14167 ft | 408 kts | 83° |
| 2026-05-08 10:58 | 25.31347 | 121.59298 | 14979 ft | 413 kts | 88° |
| 2026-05-08 10:58 | 25.31551 | 121.62471 | 15791 ft | 419 kts | 84° |
| 2026-05-08 10:58 | 25.31886 | 121.65686 | 16591 ft | 425 kts | 83° |
| 2026-05-08 10:58 | 25.32302 | 121.68946 | 17286 ft | 432 kts | 81° |
| 2026-05-08 10:59 | 25.32822 | 121.72241 | 17929 ft | 441 kts | 79° |
| 2026-05-08 10:59 | 25.33389 | 121.75568 | 18628 ft | 447 kts | 79° |
| 2026-05-08 10:59 | 25.33986 | 121.78930 | 19362 ft | 451 kts | 78° |
| 2026-05-08 10:59 | 25.34613 | 121.82365 | 20066 ft | 456 kts | 78° |
| 2026-05-08 11:00 | 25.35253 | 121.85810 | 20708 ft | 462 kts | 78° |
| 2026-05-08 11:00 | 25.35907 | 121.89288 | 21359 ft | 467 kts | 78° |
| 2026-05-08 11:00 | 25.36575 | 121.92810 | 21984 ft | 472 kts | 77° |
| 2026-05-08 11:00 | 25.37253 | 121.96375 | 22615 ft | 477 kts | 77° |
| 2026-05-08 11:01 | 25.37940 | 121.99973 | 23223 ft | 483 kts | 77° |
| 2026-05-08 11:01 | 25.38631 | 122.03583 | 23818 ft | 488 kts | 77° |
| 2026-05-08 11:01 | 25.39337 | 122.07272 | 24459 ft | 493 kts | 77° |
| 2026-05-08 11:01 | 25.40046 | 122.10976 | 25075 ft | 498 kts | 77° |
| 2026-05-08 11:02 | 25.40765 | 122.14733 | 25672 ft | 504 kts | 76° |
| 2026-05-08 11:02 | 25.42431 | 122.22291 | 26901 ft | 511 kts | 68° |
| 2026-05-08 11:02 | 25.43647 | 122.25990 | 27469 ft | 516 kts | 67° |
| 2026-05-08 11:03 | 25.44913 | 122.29739 | 28066 ft | 521 kts | 66° |
| 2026-05-08 11:03 | 25.46185 | 122.33506 | 28697 ft | 525 kts | 66° |
| 2026-05-08 11:03 | 25.47446 | 122.37250 | 29260 ft | 529 kts | 66° |
| 2026-05-08 11:03 | 25.48738 | 122.41090 | 29904 ft | 531 kts | 66° |
| 2026-05-08 11:04 | 25.50008 | 122.44878 | 30669 ft | 530 kts | 66° |
| 2026-05-08 11:04 | 25.51297 | 122.48724 | 31479 ft | 528 kts | 66° |
| 2026-05-08 11:04 | 25.52552 | 122.52475 | 32184 ft | 526 kts | 65° |
| 2026-05-08 11:04 | 25.53824 | 122.56279 | 32807 ft | 526 kts | 65° |
| 2026-05-08 11:05 | 25.55096 | 122.60089 | 33453 ft | 526 kts | 65° |
| 2026-05-08 11:05 | 25.56351 | 122.63853 | 34185 ft | 524 kts | 65° |
| 2026-05-08 11:05 | 25.57609 | 122.67629 | 34873 ft | 522 kts | 65° |
| 2026-05-08 11:05 | 25.58868 | 122.71407 | 35027 ft | 527 kts | 65° |
| 2026-05-08 11:06 | 25.60141 | 122.75234 | 35021 ft | 524 kts | 65° |
| 2026-05-08 11:06 | 25.62655 | 122.82809 | 35032 ft | 522 kts | 65° |
| 2026-05-08 11:07 | 25.65231 | 122.90533 | 35035 ft | 522 kts | 65° |
| 2026-05-08 11:07 | 25.67808 | 122.98161 | 35037 ft | 523 kts | 65° |
| 2026-05-08 11:08 | 25.70358 | 123.05731 | 35028 ft | 522 kts | 65° |
| 2026-05-08 11:08 | 25.72915 | 123.13340 | 35033 ft | 524 kts | 65° |
| 2026-05-08 11:09 | 25.75466 | 123.20946 | 35035 ft | 523 kts | 65° |
| 2026-05-08 11:09 | 25.78004 | 123.28529 | 35045 ft | 524 kts | 65° |
| 2026-05-08 11:10 | 25.80535 | 123.36110 | 35043 ft | 524 kts | 65° |
| 2026-05-08 11:10 | 25.83071 | 123.43719 | 35045 ft | 524 kts | 65° |
| 2026-05-08 11:11 | 25.85797 | 123.51220 | 35043 ft | 519 kts | 56° |
| 2026-05-08 11:11 | 25.89873 | 123.57672 | 35045 ft | 503 kts | 40° |
| 2026-05-08 11:12 | 25.95176 | 123.62614 | 35043 ft | 493 kts | 25° |
| 2026-05-08 11:12 | 25.98143 | 123.64449 | 35042 ft | 482 kts | 18° |
| 2026-05-08 11:12 | 26.01185 | 123.66046 | 35033 ft | 481 kts | 18° |
| 2026-05-08 11:13 | 26.07303 | 123.69218 | 35034 ft | 483 kts | 18° |
| 2026-05-08 11:13 | 26.13413 | 123.72404 | 35049 ft | 481 kts | 17° |
| 2026-05-08 11:14 | 26.19554 | 123.75614 | 35044 ft | 483 kts | 17° |
| 2026-05-08 11:14 | 26.25615 | 123.78791 | 35050 ft | 483 kts | 17° |
| 2026-05-08 11:15 | 26.31681 | 123.81976 | 35053 ft | 481 kts | 17° |
| 2026-05-08 11:15 | 26.37825 | 123.85205 | 35053 ft | 485 kts | 17° |
| 2026-05-08 11:16 | 26.43883 | 123.88396 | 35055 ft | 483 kts | 17° |
| 2026-05-08 11:16 | 26.50056 | 123.91649 | 35065 ft | 484 kts | 17° |
| 2026-05-08 11:17 | 26.56134 | 123.94859 | 35064 ft | 482 kts | 17° |
| 2026-05-08 11:17 | 26.62252 | 123.98126 | 35068 ft | 487 kts | 20° |
| 2026-05-08 11:18 | 26.67777 | 124.02708 | 35071 ft | 507 kts | 38° |
| 2026-05-08 11:18 | 26.72419 | 124.08715 | 35078 ft | 512 kts | 43° |
| 2026-05-08 11:19 | 26.76981 | 124.14850 | 35074 ft | 513 kts | 43° |
| 2026-05-08 11:19 | 26.81528 | 124.20965 | 35087 ft | 512 kts | 43° |
| 2026-05-08 11:20 | 26.86098 | 124.27112 | 35074 ft | 511 kts | 43° |
| 2026-05-08 11:20 | 26.90657 | 124.33248 | 35086 ft | 513 kts | 43° |
| 2026-05-08 11:21 | 26.95218 | 124.39393 | 35094 ft | 514 kts | 43° |
| 2026-05-08 11:21 | 26.99782 | 124.45551 | 35086 ft | 514 kts | 43° |
| 2026-05-08 11:22 | 27.04360 | 124.51729 | 35095 ft | 514 kts | 43° |
| 2026-05-08 11:22 | 27.08923 | 124.57900 | 35099 ft | 513 kts | 43° |
| 2026-05-08 11:23 | 27.13504 | 124.64105 | 35104 ft | 514 kts | 43° |
| 2026-05-08 11:23 | 27.18052 | 124.70272 | 35086 ft | 515 kts | 44° |
| 2026-05-08 11:24 | 27.22660 | 124.76529 | 35086 ft | 514 kts | 44° |
| 2026-05-08 11:24 | 27.27192 | 124.82690 | 35084 ft | 512 kts | 44° |
| 2026-05-08 11:25 | 27.31755 | 124.88902 | 35085 ft | 514 kts | 44° |
| 2026-05-08 11:25 | 27.36294 | 124.95090 | 35089 ft | 513 kts | 44° |
| 2026-05-08 11:26 | 27.40848 | 125.01299 | 35084 ft | 514 kts | 44° |
| 2026-05-08 11:26 | 27.45452 | 125.07505 | 35088 ft | 514 kts | 43° |
| 2026-05-08 11:27 | 27.50034 | 125.13684 | 35079 ft | 513 kts | 44° |
| 2026-05-08 11:27 | 27.54607 | 125.19865 | 35092 ft | 514 kts | 43° |
| 2026-05-08 11:28 | 27.59230 | 125.26122 | 35093 ft | 514 kts | 44° |
| 2026-05-08 11:28 | 27.63835 | 125.32365 | 35089 ft | 515 kts | 43° |
| 2026-05-08 11:29 | 27.68413 | 125.38580 | 35095 ft | 515 kts | 44° |
| 2026-05-08 11:29 | 27.73009 | 125.44829 | 35101 ft | 519 kts | 44° |
| 2026-05-08 11:30 | 27.77584 | 125.51061 | 35100 ft | 514 kts | 44° |
| 2026-05-08 11:30 | 27.82167 | 125.57313 | 35101 ft | 518 kts | 44° |
| 2026-05-08 11:31 | 27.86741 | 125.63562 | 35104 ft | 515 kts | 43° |
| 2026-05-08 11:31 | 27.91299 | 125.69795 | 35089 ft | 520 kts | 44° |
| 2026-05-08 11:32 | 27.95877 | 125.76067 | 35091 ft | 517 kts | 44° |
| 2026-05-08 11:32 | 28.00477 | 125.82376 | 35090 ft | 520 kts | 44° |
| 2026-05-08 11:33 | 28.05081 | 125.88702 | 35095 ft | 519 kts | 44° |
| 2026-05-08 11:33 | 28.09686 | 125.95039 | 35094 ft | 519 kts | 44° |
| 2026-05-08 11:34 | 28.14282 | 126.01373 | 35101 ft | 518 kts | 44° |
| 2026-05-08 11:34 | 28.18859 | 126.07687 | 35107 ft | 521 kts | 44° |
| 2026-05-08 11:35 | 28.23446 | 126.14029 | 35108 ft | 518 kts | 44° |
| 2026-05-08 11:35 | 28.28037 | 126.20381 | 35105 ft | 523 kts | 44° |
| 2026-05-08 11:36 | 28.32658 | 126.26788 | 35111 ft | 521 kts | 44° |
| 2026-05-08 11:36 | 28.37234 | 126.33142 | 35106 ft | 521 kts | 45° |
| 2026-05-08 11:37 | 28.41842 | 126.39548 | 35103 ft | 521 kts | 44° |
| 2026-05-08 11:37 | 28.46447 | 126.45960 | 35106 ft | 522 kts | 45° |
| 2026-05-08 11:38 | 28.51439 | 126.52925 | 35111 ft | 522 kts | 45° |
| 2026-05-08 11:38 | 28.56038 | 126.59347 | 35106 ft | 522 kts | 45° |
| 2026-05-08 11:39 | 28.60600 | 126.65731 | 35104 ft | 524 kts | 45° |
| 2026-05-08 11:39 | 28.65214 | 126.72196 | 35088 ft | 525 kts | 45° |
| 2026-05-08 11:40 | 28.69838 | 126.78687 | 35088 ft | 524 kts | 46° |
| 2026-05-08 11:40 | 28.74421 | 126.85129 | 35092 ft | 524 kts | 45° |
| 2026-05-08 11:41 | 28.79001 | 126.91575 | 35093 ft | 526 kts | 46° |
| 2026-05-08 11:41 | 28.83607 | 126.98071 | 35095 ft | 524 kts | 45° |
| 2026-05-08 11:42 | 28.88224 | 127.04590 | 35091 ft | 526 kts | 46° |
| 2026-05-08 11:42 | 28.92822 | 127.11093 | 35096 ft | 525 kts | 46° |
| 2026-05-08 11:43 | 28.97417 | 127.17602 | 35098 ft | 526 kts | 46° |
| 2026-05-08 11:43 | 29.02034 | 127.24154 | 35101 ft | 526 kts | 46° |
| 2026-05-08 11:44 | 29.06593 | 127.30633 | 35106 ft | 526 kts | 46° |
| 2026-05-08 11:44 | 29.11204 | 127.37195 | 35105 ft | 528 kts | 46° |
| 2026-05-08 11:45 | 29.15791 | 127.43734 | 35108 ft | 528 kts | 46° |
| 2026-05-08 11:45 | 29.20369 | 127.50271 | 35108 ft | 527 kts | 46° |
| 2026-05-08 11:46 | 29.24964 | 127.56842 | 35109 ft | 529 kts | 46° |
| 2026-05-08 11:46 | 29.29553 | 127.63416 | 35110 ft | 527 kts | 46° |
| 2026-05-08 11:47 | 29.34124 | 127.69974 | 35094 ft | 529 kts | 46° |
| 2026-05-08 11:47 | 29.38754 | 127.76626 | 35093 ft | 530 kts | 47° |
| 2026-05-08 11:48 | 29.43331 | 127.83215 | 35095 ft | 530 kts | 47° |
| 2026-05-08 11:48 | 29.47949 | 127.89872 | 35097 ft | 530 kts | 47° |
| 2026-05-08 11:49 | 29.52530 | 127.96486 | 35095 ft | 532 kts | 47° |
| 2026-05-08 11:49 | 29.57150 | 128.03165 | 35093 ft | 530 kts | 47° |
| 2026-05-08 11:50 | 29.61764 | 128.09839 | 35095 ft | 533 kts | 47° |
| 2026-05-08 11:50 | 29.66388 | 128.16542 | 35098 ft | 533 kts | 47° |
| 2026-05-08 11:51 | 29.71010 | 128.23253 | 35090 ft | 532 kts | 47° |
| 2026-05-08 11:51 | 29.75640 | 128.29985 | 35100 ft | 536 kts | 47° |
| 2026-05-08 11:52 | 29.80275 | 128.36737 | 35101 ft | 537 kts | 47° |
| 2026-05-08 11:52 | 29.84876 | 128.43451 | 35094 ft | 536 kts | 47° |
| 2026-05-08 11:53 | 29.89518 | 128.50235 | 35095 ft | 538 kts | 47° |
| 2026-05-08 11:53 | 29.94144 | 128.57010 | 35101 ft | 536 kts | 47° |
| 2026-05-08 11:54 | 29.98708 | 128.63702 | 35096 ft | 535 kts | 47° |
| 2026-05-08 11:54 | 30.03312 | 128.70467 | 35082 ft | 534 kts | 48° |
| 2026-05-08 11:55 | 30.07943 | 128.77278 | 35078 ft | 538 kts | 48° |
| 2026-05-08 11:55 | 30.12548 | 128.84067 | 35083 ft | 535 kts | 48° |
| 2026-05-08 11:56 | 30.17120 | 128.90816 | 35077 ft | 536 kts | 48° |
| 2026-05-08 11:56 | 30.21746 | 128.97656 | 35082 ft | 538 kts | 49° |
| 2026-05-08 11:57 | 30.26356 | 129.04486 | 35078 ft | 538 kts | 48° |
| 2026-05-08 11:57 | 30.30940 | 129.11291 | 35080 ft | 535 kts | 48° |
| 2026-05-08 11:58 | 30.35571 | 129.18173 | 35084 ft | 540 kts | 49° |
| 2026-05-08 11:58 | 30.40172 | 129.25026 | 35084 ft | 537 kts | 48° |
| 2026-05-08 11:59 | 30.47126 | 129.35403 | 35081 ft | 540 kts | 49° |
| 2026-05-08 11:59 | 30.51751 | 129.42322 | 35071 ft | 537 kts | 48° |
| 2026-05-08 12:00 | 30.54002 | 129.45694 | 34568 ft | 534 kts | 49° |
| 2026-05-08 12:00 | 30.56287 | 129.49118 | 33705 ft | 538 kts | 49° |
| 2026-05-08 12:00 | 30.58583 | 129.52560 | 32867 ft | 541 kts | 49° |
| 2026-05-08 12:00 | 30.60884 | 129.56014 | 32074 ft | 542 kts | 50° |
| 2026-05-08 12:01 | 30.63194 | 129.59486 | 31536 ft | 537 kts | 50° |
| 2026-05-08 12:01 | 30.65466 | 129.62906 | 31102 ft | 530 kts | 49° |
| 2026-05-08 12:01 | 30.67697 | 129.66267 | 30618 ft | 525 kts | 50° |
| 2026-05-08 12:01 | 30.69911 | 129.69603 | 30090 ft | 520 kts | 50° |
| 2026-05-08 12:02 | 30.72100 | 129.72902 | 29578 ft | 516 kts | 49° |
| 2026-05-08 12:02 | 30.74286 | 129.76202 | 29076 ft | 511 kts | 49° |
| 2026-05-08 12:02 | 30.76438 | 129.79452 | 28584 ft | 507 kts | 50° |
| 2026-05-08 12:02 | 30.78556 | 129.82654 | 28096 ft | 502 kts | 49° |
| 2026-05-08 12:03 | 30.80685 | 129.85875 | 27599 ft | 498 kts | 50° |
| 2026-05-08 12:03 | 30.82788 | 129.89058 | 27102 ft | 494 kts | 50° |
| 2026-05-08 12:03 | 30.84856 | 129.92195 | 26594 ft | 491 kts | 50° |
| 2026-05-08 12:03 | 30.86853 | 129.95393 | 26103 ft | 488 kts | 52° |
| 2026-05-08 12:04 | 30.88805 | 129.98604 | 25597 ft | 484 kts | 52° |
| 2026-05-08 12:04 | 30.90741 | 130.01788 | 25091 ft | 481 kts | 52° |
| 2026-05-08 12:04 | 30.92676 | 130.04968 | 24596 ft | 478 kts | 51° |
| 2026-05-08 12:04 | 30.94578 | 130.08092 | 24095 ft | 475 kts | 52° |
| 2026-05-08 12:05 | 30.96483 | 130.11221 | 23595 ft | 472 kts | 51° |
| 2026-05-08 12:05 | 30.98390 | 130.14354 | 23096 ft | 469 kts | 51° |
| 2026-05-08 12:05 | 31.00277 | 130.17453 | 22594 ft | 467 kts | 52° |
| 2026-05-08 12:05 | 31.02137 | 130.20511 | 21965 ft | 469 kts | 52° |
| 2026-05-08 12:06 | 31.04039 | 130.23637 | 21098 ft | 478 kts | 52° |
| 2026-05-08 12:06 | 31.05951 | 130.26782 | 20484 ft | 478 kts | 52° |
| 2026-05-08 12:06 | 31.07868 | 130.29939 | 20185 ft | 469 kts | 52° |
| 2026-05-08 12:06 | 31.09728 | 130.33008 | 19858 ft | 462 kts | 52° |
| 2026-05-08 12:07 | 31.11581 | 130.36064 | 19385 ft | 459 kts | 52° |
| 2026-05-08 12:07 | 31.13428 | 130.39111 | 18821 ft | 459 kts | 52° |
| 2026-05-08 12:07 | 31.15276 | 130.42162 | 18274 ft | 457 kts | 52° |
| 2026-05-08 12:07 | 31.17099 | 130.45175 | 17843 ft | 453 kts | 53° |
| 2026-05-08 12:08 | 31.18911 | 130.48173 | 17478 ft | 447 kts | 52° |
| 2026-05-08 12:08 | 31.20695 | 130.51126 | 17047 ft | 438 kts | 52° |
| 2026-05-08 12:08 | 31.22434 | 130.54009 | 16521 ft | 430 kts | 52° |
| 2026-05-08 12:08 | 31.24142 | 130.56839 | 15970 ft | 423 kts | 52° |
| 2026-05-08 12:09 | 31.25823 | 130.59627 | 15445 ft | 415 kts | 51° |
| 2026-05-08 12:09 | 31.27438 | 130.62309 | 14853 ft | 404 kts | 51° |
| 2026-05-08 12:09 | 31.29046 | 130.64980 | 14161 ft | 394 kts | 51° |
| 2026-05-08 12:09 | 31.30621 | 130.67598 | 13472 ft | 391 kts | 51° |
| 2026-05-08 12:10 | 31.32178 | 130.70181 | 13060 ft | 385 kts | 50° |
| 2026-05-08 12:10 | 31.33896 | 130.72472 | 13009 ft | 378 kts | 39° |
| 2026-05-08 12:10 | 31.35890 | 130.74442 | 12749 ft | 369 kts | 34° |
| 2026-05-08 12:10 | 31.37858 | 130.76288 | 12033 ft | 363 kts | 34° |
| 2026-05-08 12:11 | 31.39835 | 130.78133 | 11188 ft | 362 kts | 35° |
| 2026-05-08 12:11 | 31.41759 | 130.79933 | 10766 ft | 344 kts | 35° |
| 2026-05-08 12:11 | 31.43578 | 130.81636 | 10409 ft | 327 kts | 35° |
| 2026-05-08 12:11 | 31.45324 | 130.83269 | 10123 ft | 310 kts | 35° |
| 2026-05-08 12:12 | 31.46970 | 130.84807 | 9767 ft | 297 kts | 34° |
| 2026-05-08 12:12 | 31.48554 | 130.86289 | 9379 ft | 288 kts | 35° |
| 2026-05-08 12:12 | 31.50105 | 130.87740 | 8866 ft | 284 kts | 35° |
| 2026-05-08 12:12 | 31.51757 | 130.88911 | 8284 ft | 276 kts | 16° |
| 2026-05-08 12:13 | 31.53525 | 130.89767 | 7918 ft | 278 kts | 30° |
| 2026-05-08 12:13 | 31.54898 | 130.91386 | 7594 ft | 282 kts | 57° |
| 2026-05-08 12:13 | 31.55515 | 130.93549 | 7303 ft | 282 kts | 85° |
| 2026-05-08 12:13 | 31.55301 | 130.95781 | 7084 ft | 277 kts | 104° |
| 2026-05-08 12:14 | 31.54820 | 130.97932 | 7055 ft | 264 kts | 105° |
| 2026-05-08 12:14 | 31.54131 | 130.99861 | 7013 ft | 251 kts | 125° |
| 2026-05-08 12:14 | 31.53004 | 131.01331 | 6928 ft | 241 kts | 139° |
| 2026-05-08 12:14 | 31.51676 | 131.02536 | 6662 ft | 239 kts | 146° |
| 2026-05-08 12:15 | 31.50204 | 131.03404 | 6349 ft | 239 kts | 169° |
| 2026-05-08 12:15 | 31.48561 | 131.03337 | 6028 ft | 238 kts | 200° |
| 2026-05-08 12:15 | 31.47215 | 131.02312 | 5955 ft | 237 kts | 230° |
| 2026-05-08 12:15 | 31.46472 | 131.00610 | 5944 ft | 237 kts | 260° |
| 2026-05-08 12:16 | 31.46539 | 130.98688 | 5943 ft | 236 kts | 284° |
| 2026-05-08 12:16 | 31.46948 | 130.96848 | 5946 ft | 232 kts | 286° |
| 2026-05-08 12:16 | 31.47481 | 130.95097 | 5943 ft | 227 kts | 303° |
| 2026-05-08 12:16 | 31.48520 | 130.93721 | 5956 ft | 224 kts | 320° |
| 2026-05-08 12:17 | 31.49781 | 130.92647 | 5971 ft | 226 kts | 326° |
| 2026-05-08 12:17 | 31.51129 | 130.91666 | 5969 ft | 231 kts | 328° |
| 2026-05-08 12:17 | 31.52536 | 130.90692 | 5964 ft | 232 kts | 329° |
| 2026-05-08 12:17 | 31.53906 | 130.89764 | 5956 ft | 225 kts | 330° |
| 2026-05-08 12:18 | 31.55256 | 130.88860 | 5774 ft | 221 kts | 330° |
| 2026-05-08 12:18 | 31.56574 | 130.87975 | 5577 ft | 215 kts | 330° |
| 2026-05-08 12:18 | 31.57865 | 130.87106 | 5360 ft | 210 kts | 329° |
| 2026-05-08 12:18 | 31.59112 | 130.86267 | 5124 ft | 205 kts | 329° |
| 2026-05-08 12:19 | 31.60336 | 130.85443 | 4787 ft | 202 kts | 329° |
| 2026-05-08 12:19 | 31.61548 | 130.84624 | 4407 ft | 202 kts | 329° |
| 2026-05-08 12:19 | 31.62762 | 130.83807 | 4045 ft | 200 kts | 329° |
| 2026-05-08 12:19 | 31.63932 | 130.83020 | 3970 ft | 184 kts | 329° |
| 2026-05-08 12:20 | 31.65007 | 130.82297 | 3843 ft | 174 kts | 329° |
| 2026-05-08 12:20 | 31.66059 | 130.81586 | 3564 ft | 173 kts | 329° |
| 2026-05-08 12:20 | 31.67087 | 130.80858 | 3262 ft | 172 kts | 327° |
| 2026-05-08 12:20 | 31.68099 | 130.80130 | 2971 ft | 172 kts | 329° |
| 2026-05-08 12:21 | 31.69136 | 130.79446 | 2809 ft | 165 kts | 330° |
| 2026-05-08 12:21 | 31.70107 | 130.78806 | 2789 ft | 158 kts | 330° |
| 2026-05-08 12:21 | 31.71065 | 130.78165 | 2693 ft | 157 kts | 330° |
| 2026-05-08 12:21 | 31.71985 | 130.77548 | 2500 ft | 153 kts | 330° |
| 2026-05-08 12:22 | 31.72909 | 130.76930 | 2304 ft | 151 kts | 330° |
| 2026-05-08 12:22 | 31.73813 | 130.76323 | 2101 ft | 145 kts | 330° |
| 2026-05-08 12:22 | 31.74689 | 130.75735 | 1910 ft | 142 kts | 329° |
| 2026-05-08 12:22 | 31.75551 | 130.75162 | 1713 ft | 144 kts | 330° |
| 2026-05-08 12:23 | 31.76414 | 130.74583 | 1508 ft | 141 kts | 329° |
| 2026-05-08 12:23 | 31.77265 | 130.74019 | 1311 ft | 138 kts | 329° |
| 2026-05-08 12:23 | 31.78089 | 130.73462 | 1149 ft | 136 kts | 329° |
| 2026-05-08 12:23 | 31.78913 | 130.72903 | 983 ft | 138 kts | 329° |
| 2026-05-08 12:24 | 31.79739 | 130.72342 | 891 ft | 121 kts | 330° |
| 2026-05-08 12:24 | 31.80311 | 130.71957 | 903 ft | 69 kts | 330° |
| 2026-05-08 12:24 | 31.80620 | 130.71748 | 907 ft | 35 kts | 330° |
| 2026-05-08 12:24 | 31.80738 | 130.71657 | 907 ft | 17 kts | 320° |
| 2026-05-08 12:25 | 31.80817 | 130.71561 | 907 ft | 16 kts | 308° |
| 2026-05-08 12:25 | 31.80856 | 130.71471 | 908 ft | 8 kts | 272° |
| 2026-05-08 12:25 | 31.80828 | 130.71416 | 908 ft | 8 kts | 218° |
| 2026-05-08 12:25 | 31.80766 | 130.71425 | 908 ft | 11 kts | 151° |
| 2026-05-08 12:26 | 31.80691 | 130.71477 | 907 ft | 12 kts | 149° |
| 2026-05-08 12:26 | 31.80614 | 130.71530 | 907 ft | 12 kts | 149° |
| 2026-05-08 12:26 | 31.80536 | 130.71582 | 906 ft | 13 kts | 150° |
| 2026-05-08 12:26 | 31.80456 | 130.71637 | 906 ft | 13 kts | 150° |
| 2026-05-08 12:27 | 31.80395 | 130.71672 | 905 ft | 6 kts | 178° |
| 2026-05-08 12:27 | 31.80362 | 130.71632 | 905 ft | 8 kts | 243° |
| 2026-05-08 12:27 | 31.80342 | 130.71587 | 905 ft | 5 kts | 240° |
| 2026-05-08 12:27 | 31.80328 | 130.71558 | 905 ft | 1 kts | 241° |